Time;durP1;ratioP1;P1;durP2;ratioP2;P2;SDS_P1;SDS_P2;PMS_P1;PMS_P2;Temp;Humidity;BMP_temperature;BMP_pressure;BME280_temperature;BME280_humidity;BME280_pressure;Samples;Min_cycle;Max_cycle;Signal;HPM_P1;HPM_P2
2023/04/23 00:01:27;;;;;;;;;;;18.10;97.50;;;;;;5072674;28;19909;-90
2023/04/23 00:03:56;;;;;;;;;;;18.10;97.50;;;;;;5071576;28;19912;-90
2023/04/23 00:06:25;;;;;;;;;;;18.10;97.50;;;;;;5086412;28;19995;-90
2023/04/23 00:08:52;;;;;;;;;;;18.00;97.50;;;;;;5087888;28;20186;-90
2023/04/23 00:11:18;;;;;;;;;;;18.10;97.50;;;;;;5088552;28;19966;-90
2023/04/23 00:13:45;;;;;;;;;;;18.00;97.50;;;;;;5088181;28;19947;-90
2023/04/23 00:16:11;;;;;;;;;;;18.00;97.40;;;;;;5088630;28;19908;-90
2023/04/23 00:18:37;;;;;;;;;;;18.00;97.40;;;;;;5073201;28;19909;-90
2023/04/23 00:21:03;;;;;;;;;;;18.00;97.40;;;;;;5107750;28;19930;-90
2023/04/23 00:23:28;;;;;;;;;;;18.00;97.40;;;;;;5075505;28;19909;-90
2023/04/23 00:25:54;;;;;;;;;;;18.00;97.40;;;;;;5111080;28;20271;-90
2023/04/23 00:28:19;;;;;;;;;;;18.00;97.40;;;;;;5113185;28;20194;-90
2023/04/23 00:30:45;;;;;;;;;;;18.00;97.40;;;;;;5093070;28;19920;-90
2023/04/23 00:33:16;;;;;;;;;;;18.00;97.40;;;;;;5094912;28;20040;-90
2023/04/23 00:35:42;;;;;;;;;;;18.00;97.40;;;;;;5092030;28;19912;-90
2023/04/23 00:38:08;;;;;;;;;;;18.00;97.40;;;;;;5108746;28;19923;-90
2023/04/23 00:40:33;;;;;;;;;;;18.00;97.40;;;;;;5109696;28;19909;-90
2023/04/23 00:42:59;;;;;;;;;;;17.90;97.40;;;;;;5109554;28;19916;-90
2023/04/23 00:45:24;;;;;;;;;;;17.90;97.20;;;;;;5088593;28;19908;-90
2023/04/23 00:47:52;;;;;;;;;;;17.90;97.30;;;;;;5073429;28;20039;-90
2023/04/23 00:50:17;;;;;;;;;;;17.90;97.30;;;;;;5089120;28;19908;-90
2023/04/23 00:52:43;;;;;;;;;;;17.90;97.30;;;;;;5086712;28;20071;-90
2023/04/23 00:55:08;;;;;;;;;;;17.90;97.30;;;;;;5087624;28;19931;-90
2023/04/23 00:57:35;;;;;;;;;;;17.90;97.30;;;;;;5073084;28;19908;-90
2023/04/23 01:00:01;;;;;;;;;;;17.90;97.30;;;;;;5075426;28;19908;-90
2023/04/23 01:02:29;;;;;;;;;;;17.90;97.30;;;;;;5092609;28;19908;-90
2023/04/23 01:04:55;;;;;;;;;;;17.90;97.30;;;;;;5077215;28;19952;-90
2023/04/23 01:07:22;;;;;;;;;;;17.90;97.30;;;;;;5094247;28;19931;-89
2023/04/23 01:09:49;;;;;;;;;;;17.80;97.30;;;;;;5094873;28;19923;-89
2023/04/23 01:12:15;;;;;;;;;;;17.80;97.30;;;;;;5078565;28;20171;-90
2023/04/23 01:14:41;;;;;;;;;;;17.80;97.20;;;;;;5095887;28;19908;-89
2023/04/23 01:17:08;;;;;;;;;;;17.80;97.20;;;;;;5094171;28;19908;-90
2023/04/23 01:19:34;;;;;;;;;;;17.80;97.20;;;;;;5095012;28;19908;-90
2023/04/23 01:22:00;;;;;;;;;;;17.80;97.20;;;;;;5077084;28;19909;-89
2023/04/23 01:24:30;;;;;;;;;;;17.80;97.20;;;;;;5095383;28;19909;-89
2023/04/23 01:26:57;;;;;;;;;;;17.80;97.20;;;;;;5094613;28;19953;-89
2023/04/23 01:29:24;;;;;;;;;;;17.80;97.20;;;;;;5094866;28;19995;-89
2023/04/23 01:31:50;;;;;;;;;;;17.80;97.20;;;;;;5077588;28;20016;-89
2023/04/23 01:34:15;;;;;;;;;;;17.80;97.20;;;;;;5094604;28;19999;-89
2023/04/23 01:36:42;;;;;;;;;;;17.80;97.20;;;;;;5077650;28;19916;-89
2023/04/23 01:39:08;;;;;;;;;;;17.80;97.20;;;;;;5095398;28;20263;-89
2023/04/23 01:41:34;;;;;;;;;;;17.70;97.20;;;;;;5093973;28;20090;-89
2023/04/23 01:44:00;;;;;;;;;;;17.70;97.20;;;;;;5094629;28;19917;-89
2023/04/23 01:46:26;;;;;;;;;;;17.70;97.20;;;;;;5094820;28;19970;-89
2023/04/23 01:48:52;;;;;;;;;;;17.70;97.20;;;;;;5094380;28;19971;-89
2023/04/23 01:51:17;;;;;;;;;;;17.70;97.10;;;;;;5108939;28;19916;-89
2023/04/23 01:53:43;;;;;;;;;;;17.70;97.10;;;;;;5091982;28;19912;-89
2023/04/23 01:56:09;;;;;;;;;;;17.70;97.10;;;;;;5093330;28;19908;-91
2023/04/23 01:58:35;;;;;;;;;;;17.70;97.10;;;;;;5093419;28;19924;-90
2023/04/23 02:01:00;;;;;;;;;;;17.70;97.10;;;;;;5092601;28;19969;-90
2023/04/23 02:03:28;;;;;;;;;;;17.70;97.10;;;;;;5110971;28;19908;-90
2023/04/23 02:05:55;;;;;;;;;;;17.70;97.10;;;;;;5093382;28;20357;-89
2023/04/23 02:08:21;;;;;;;;;;;17.70;97.10;;;;;;5075534;28;20007;-89
2023/04/23 02:10:47;;;;;;;;;;;17.60;97.10;;;;;;5092873;28;20306;-89
2023/04/23 02:13:13;;;;;;;;;;;17.60;97.10;;;;;;5092809;28;20010;-90
2023/04/23 02:15:39;;;;;;;;;;;17.60;97.00;;;;;;5093099;28;19908;-90
2023/04/23 02:18:05;;;;;;;;;;;17.60;97.00;;;;;;5110731;28;19908;-90
2023/04/23 02:20:31;;;;;;;;;;;17.60;97.00;;;;;;5093250;28;20344;-90
2023/04/23 02:22:56;;;;;;;;;;;17.60;97.00;;;;;;5111104;28;19944;-90
2023/04/23 02:25:22;;;;;;;;;;;17.60;97.00;;;;;;5093570;28;20249;-90
2023/04/23 02:27:47;;;;;;;;;;;17.60;97.00;;;;;;5093459;28;19908;-90
2023/04/23 02:30:14;;;;;;;;;;;17.60;97.00;;;;;;5076882;28;19961;-90
2023/04/23 02:32:40;;;;;;;;;;;17.60;97.00;;;;;;5110846;28;19908;-90
2023/04/23 02:35:08;;;;;;;;;;;17.50;97.00;;;;;;5093503;28;20416;-90
2023/04/23 02:37:34;;;;;;;;;;;17.50;97.00;;;;;;5093482;28;20206;-89
2023/04/23 02:40:00;;;;;;;;;;;17.50;97.00;;;;;;5093575;28;19920;-90
2023/04/23 02:42:25;;;;;;;;;;;17.50;96.90;;;;;;5110241;28;19908;-90
2023/04/23 02:44:51;;;;;;;;;;;17.50;96.90;;;;;;5077588;28;19966;-90
2023/04/23 02:47:17;;;;;;;;;;;17.50;96.90;;;;;;5092852;28;19908;-90
2023/04/23 02:49:43;;;;;;;;;;;17.50;96.90;;;;;;5091868;28;19924;-90
2023/04/23 02:52:08;;;;;;;;;;;17.50;96.90;;;;;;5075871;28;19908;-90
2023/04/23 02:54:35;;;;;;;;;;;17.50;96.90;;;;;;5091380;28;20024;-89
2023/04/23 02:57:02;;;;;;;;;;;17.50;96.90;;;;;;5089037;28;20298;-89
2023/04/23 02:59:33;;;;;;;;;;;17.50;96.90;;;;;;5075234;28;19908;-90
2023/04/23 03:01:59;;;;;;;;;;;17.50;96.90;;;;;;5091778;28;19913;-90
2023/04/23 03:04:24;;;;;;;;;;;17.50;96.90;;;;;;5092241;28;19970;-89
2023/04/23 03:06:50;;;;;;;;;;;17.50;96.90;;;;;;5092939;28;19919;-89
2023/04/23 03:09:22;;;;;;;;;;;17.50;96.80;;;;;;5092098;28;19919;-89
2023/04/23 03:12:01;;;;;;;;;;;17.50;96.80;;;;;;5075800;28;19916;-90
2023/04/23 03:14:26;;;;;;;;;;;17.40;96.80;;;;;;5092866;28;19908;-90
2023/04/23 03:16:52;;;;;;;;;;;17.40;96.80;;;;;;5092228;28;19920;-90
2023/04/23 03:19:18;;;;;;;;;;;17.40;96.80;;;;;;5092757;28;20287;-90
2023/04/23 03:21:43;;;;;;;;;;;17.40;96.80;;;;;;5092241;28;20318;-90
2023/04/23 03:24:11;;;;;;;;;;;17.40;96.80;;;;;;5109313;28;19909;-90
2023/04/23 03:26:37;;;;;;;;;;;17.40;96.80;;;;;;5091476;28;19916;-89
2023/04/23 03:29:02;;;;;;;;;;;17.40;96.80;;;;;;5091762;28;19974;-90
2023/04/23 03:31:28;;;;;;;;;;;17.40;96.80;;;;;;5091011;28;19969;-90
2023/04/23 03:33:54;;;;;;;;;;;17.40;96.70;;;;;;5090603;28;19908;-90
2023/04/23 03:36:24;;;;;;;;;;;17.40;96.70;;;;;;5089895;28;19916;-90
2023/04/23 03:38:49;;;;;;;;;;;17.40;96.70;;;;;;5089923;28;20290;-90
2023/04/23 03:41:36;;;;;;;;;;;17.30;96.70;;;;;;5136066;27;19916;-16
2023/04/23 03:44:02;;;;;;;;;;;17.30;96.70;;;;;;5135883;27;20200;-16
2023/04/23 03:46:27;;;;;;;;;;;17.30;96.70;;;;;;5136232;28;19908;-15
2023/04/23 03:48:53;;;;;;;;;;;17.30;96.70;;;;;;5136438;27;19908;-16
2023/04/23 03:51:19;;;;;;;;;;;17.30;96.70;;;;;;5136738;27;19954;-15
2023/04/23 03:53:54;;;;;;;;;;;17.30;96.60;;;;;;5136313;28;19933;-15
2023/04/23 03:56:20;;;;;;;;;;;17.30;96.60;;;;;;5135813;28;19908;-15
2023/04/23 03:58:45;;;;;;;;;;;17.30;96.60;;;;;;5136589;27;19914;-16
2023/04/23 04:01:11;;;;;;;;;;;17.30;96.60;;;;;;5135367;28;19931;-15
2023/04/23 04:03:36;;;;;;;;;;;17.30;96.60;;;;;;5135817;28;20276;-17
2023/04/23 04:06:02;;;;;;;;;;;17.30;96.60;;;;;;5136077;27;19943;-15
2023/04/23 04:08:28;;;;;;;;;;;17.30;96.60;;;;;;5135840;28;20261;-12
2023/04/23 04:11:10;;;;;;;;;;;17.20;96.50;;;;;;5135250;28;20523;-14
2023/04/23 04:13:36;;;;;;;;;;;17.20;96.50;;;;;;5135243;28;19951;-17
2023/04/23 04:16:01;;;;;;;;;;;17.20;96.50;;;;;;5135435;28;19947;-15
2023/04/23 04:18:27;;;;;;;;;;;17.20;96.50;;;;;;5135923;27;19908;-15
2023/04/23 04:21:12;;;;;;;;;;;17.20;96.50;;;;;;5135684;27;19911;-15
2023/04/23 04:23:38;;;;;;;;;;;17.20;96.50;;;;;;5135796;27;19908;-15
2023/04/23 04:26:04;;;;;;;;;;;17.20;96.50;;;;;;5135292;28;20331;-14
2023/04/23 04:28:34;;;;;;;;;;;17.20;96.40;;;;;;5135561;28;19929;-16
2023/04/23 04:31:00;;;;;;;;;;;17.20;96.40;;;;;;5135572;27;20006;-14
2023/04/23 04:33:27;;;;;;;;;;;17.20;96.40;;;;;;5135713;27;19950;-16
2023/04/23 04:35:55;;;;;;;;;;;17.20;96.40;;;;;;5135553;27;20016;-14
2023/04/23 04:38:21;;;;;;;;;;;17.20;96.40;;;;;;5135986;27;20294;-17
2023/04/23 04:40:49;;;;;;;;;;;17.20;96.30;;;;;;5134469;28;20379;-16
2023/04/23 04:43:16;;;;;;;;;;;17.20;96.30;;;;;;5134963;27;19919;-17
2023/04/23 04:45:41;;;;;;;;;;;17.20;96.30;;;;;;5135101;28;19912;-15
2023/04/23 04:48:07;;;;;;;;;;;17.20;96.20;;;;;;5135281;28;19919;-14
2023/04/23 04:50:51;;;;;;;;;;;17.20;96.20;;;;;;5134864;27;19908;-17
2023/04/23 04:53:17;;;;;;;;;;;17.20;96.20;;;;;;5120356;28;20307;-16
2023/04/23 04:55:43;;;;;;;;;;;17.20;96.10;;;;;;5121402;28;19908;-15
2023/04/23 04:58:08;;;;;;;;;;;17.20;96.10;;;;;;5121149;28;20296;-16
2023/04/23 05:00:34;;;;;;;;;;;17.20;96.10;;;;;;5121673;28;20287;-15
2023/04/23 05:03:02;;;;;;;;;;;17.20;96.00;;;;;;5120749;28;19907;-14
2023/04/23 05:05:28;;;;;;;;;;;17.20;96.00;;;;;;5121646;28;19984;-15
2023/04/23 05:07:53;;;;;;;;;;;17.20;95.90;;;;;;5120067;28;20329;-18
2023/04/23 05:10:19;;;;;;;;;;;17.20;95.80;;;;;;5120712;28;19981;-17
2023/04/23 05:12:51;;;;;;;;;;;17.20;95.80;;;;;;5120448;28;19918;-15
2023/04/23 05:15:17;;;;;;;;;;;17.20;95.70;;;;;;5120636;28;19918;-14
2023/04/23 05:17:42;;;;;;;;;;;17.20;95.60;;;;;;5120668;28;19907;-15
2023/04/23 05:20:11;;;;;;;;;;;17.30;95.60;;;;;;5120788;28;19919;-15
2023/04/23 05:22:47;;;;;;;;;;;17.40;95.50;;;;;;5119833;28;19916;-15
2023/04/23 05:25:13;;;;;;;;;;;17.40;95.20;;;;;;5120115;28;19908;-16
2023/04/23 05:27:39;;;;;;;;;;;17.50;95.00;;;;;;5120362;28;19912;-15
2023/04/23 05:30:07;;;;;;;;;;;17.60;94.80;;;;;;5103706;28;19915;-17
2023/04/23 05:32:33;;;;;;;;;;;17.70;94.50;;;;;;5120716;28;19908;-14
2023/04/23 05:34:59;;;;;;;;;;;17.80;94.20;;;;;;5119849;28;20236;-17
2023/04/23 05:37:25;;;;;;;;;;;17.90;93.90;;;;;;5119997;28;20003;-17
2023/04/23 05:39:50;;;;;;;;;;;17.90;93.70;;;;;;5119420;28;20023;-16
2023/04/23 05:42:16;;;;;;;;;;;18.00;93.40;;;;;;5119298;28;19916;-16
2023/04/23 05:44:41;;;;;;;;;;;18.10;93.20;;;;;;5119667;28;20462;-14
2023/04/23 05:47:08;;;;;;;;;;;18.10;93.00;;;;;;5119898;28;19937;-17
2023/04/23 05:49:33;;;;;;;;;;;18.10;92.90;;;;;;5120142;27;20177;-17
2023/04/23 05:52:10;;;;;;;;;;;18.00;92.90;;;;;;5120186;28;20303;-16
2023/04/23 05:54:36;;;;;;;;;;;18.10;92.80;;;;;;5120468;28;20162;-16
2023/04/23 05:57:03;;;;;;;;;;;18.10;92.70;;;;;;5120047;28;19926;-13
2023/04/23 05:59:29;;;;;;;;;;;18.10;92.60;;;;;;5119548;28;20400;-16
2023/04/23 06:01:55;;;;;;;;;;;18.20;92.50;;;;;;5118519;28;19960;-18
2023/04/23 06:04:20;;;;;;;;;;;18.20;92.40;;;;;;5119116;28;19912;-17
2023/04/23 06:06:46;;;;;;;;;;;18.20;92.30;;;;;;5119029;28;20009;-16
2023/04/23 06:09:11;;;;;;;;;;;18.20;92.30;;;;;;5119492;27;20170;-15
2023/04/23 06:11:37;;;;;;;;;;;18.10;92.20;;;;;;5119847;28;19903;-16
2023/04/23 06:14:09;;;;;;;;;;;18.10;92.20;;;;;;5119799;28;20299;-15
2023/04/23 06:16:34;;;;;;;;;;;18.10;92.10;;;;;;5118764;28;19908;-17
2023/04/23 06:19:00;;;;;;;;;;;18.20;92.10;;;;;;5119686;28;19908;-18
2023/04/23 06:21:26;;;;;;;;;;;18.10;92.10;;;;;;5118656;28;20251;-15
2023/04/23 06:23:51;;;;;;;;;;;18.20;92.10;;;;;;5118534;28;19912;-17
2023/04/23 06:26:18;;;;;;;;;;;18.10;92.00;;;;;;5118665;28;19915;-18
2023/04/23 06:28:44;;;;;;;;;;;18.10;92.10;;;;;;5118923;28;19954;-17
2023/04/23 06:31:10;;;;;;;;;;;18.10;92.10;;;;;;5118213;28;20441;-18
2023/04/23 06:33:36;;;;;;;;;;;18.10;92.00;;;;;;5118994;28;20201;-16
2023/04/23 06:36:05;;;;;;;;;;;18.20;91.90;;;;;;5117848;28;20265;-15
2023/04/23 06:38:30;;;;;;;;;;;18.20;91.80;;;;;;5119323;28;20209;-16
2023/04/23 06:40:56;;;;;;;;;;;18.20;91.70;;;;;;5119137;28;20272;-16
2023/04/23 06:43:22;;;;;;;;;;;18.30;91.60;;;;;;5118951;28;19908;-16
2023/04/23 06:45:56;;;;;;;;;;;18.30;91.40;;;;;;5118103;28;19915;-16
2023/04/23 06:48:21;;;;;;;;;;;18.40;91.30;;;;;;5117991;28;20311;-16
2023/04/23 06:50:47;;;;;;;;;;;18.40;91.10;;;;;;5118875;28;19991;-16
2023/04/23 06:53:13;;;;;;;;;;;18.40;91.00;;;;;;5118617;28;19908;-17
2023/04/23 06:55:50;;;;;;;;;;;18.40;91.00;;;;;;5119032;28;19912;-15
2023/04/23 06:58:16;;;;;;;;;;;18.40;90.90;;;;;;5118949;28;20262;-17
2023/04/23 07:00:41;;;;;;;;;;;18.40;90.80;;;;;;5119155;28;19922;-16
2023/04/23 07:03:07;;;;;;;;;;;18.50;90.80;;;;;;5119164;28;19908;-18
2023/04/23 07:05:32;;;;;;;;;;;18.50;90.70;;;;;;5118636;28;19919;-16
2023/04/23 07:07:58;;;;;;;;;;;18.60;90.60;;;;;;5117767;28;19955;-16
2023/04/23 07:10:24;;;;;;;;;;;18.60;90.30;;;;;;5118978;28;19919;-18
2023/04/23 07:12:49;;;;;;;;;;;18.80;90.00;;;;;;5117034;28;20006;-16
2023/04/23 07:15:15;;;;;;;;;;;18.90;89.20;;;;;;5118895;28;19977;-16
2023/04/23 07:17:40;;;;;;;;;;;19.10;88.20;;;;;;5118177;28;20197;-16
2023/04/23 07:20:07;;;;;;;;;;;19.30;86.90;;;;;;5097493;28;19915;-18
2023/04/23 07:22:33;;;;;;;;;;;19.40;85.80;;;;;;5097923;28;20552;-14
2023/04/23 07:24:59;;;;;;;;;;;19.50;85.10;;;;;;5097936;28;20025;-17
2023/04/23 07:27:24;;;;;;;;;;;19.50;84.80;;;;;;5110181;28;19972;-18
2023/04/23 07:29:50;;;;;;;;;;;19.50;84.70;;;;;;5118603;28;19971;-16
2023/04/23 07:32:15;;;;;;;;;;;19.50;84.40;;;;;;5118081;28;19919;-17
2023/04/23 07:34:41;;;;;;;;;;;19.60;84.00;;;;;;5117807;28;19925;-16
2023/04/23 07:37:13;;;;;;;;;;;19.80;83.30;;;;;;5118089;28;19973;-16
2023/04/23 07:39:38;;;;;;;;;;;20.30;81.80;;;;;;5117867;28;19912;-16
2023/04/23 07:42:04;;;;;;;;;;;21.30;76.90;;;;;;5117822;28;20396;-17
2023/04/23 07:44:30;;;;;;;;;;;22.40;71.70;;;;;;5117208;28;19998;-16
2023/04/23 07:46:55;;;;;;;;;;;23.30;67.10;;;;;;5116328;28;19908;-15
2023/04/23 07:49:39;;;;;;;;;;;23.90;63.50;;;;;;5116724;28;19926;-15
2023/04/23 07:52:05;;;;;;;;;;;24.50;60.30;;;;;;5117781;28;19919;-17
2023/04/23 07:54:30;;;;;;;;;;;25.00;58.70;;;;;;5116568;28;19938;-15
2023/04/23 07:56:56;;;;;;;;;;;25.40;57.80;;;;;;5117296;28;19961;-13
2023/04/23 07:59:21;;;;;;;;;;;25.80;56.80;;;;;;5116467;28;19911;-17
2023/04/23 08:02:04;;;;;;;;;;;26.00;56.20;;;;;;5117799;28;20269;-17
2023/04/23 08:04:29;;;;;;;;;;;26.20;55.60;;;;;;5117676;28;19919;-16
2023/04/23 08:06:55;;;;;;;;;;;26.60;55.00;;;;;;5117136;28;19908;-18
2023/04/23 08:09:20;;;;;;;;;;;26.80;54.40;;;;;;5117777;28;19904;-17
2023/04/23 08:11:48;;;;;;;;;;;27.10;53.90;;;;;;5117484;28;19947;-17
2023/04/23 08:14:14;;;;;;;;;;;27.30;53.50;;;;;;5116949;28;19915;-15
2023/04/23 08:16:39;;;;;;;;;;;27.40;53.00;;;;;;5136039;22;20004;-18
2023/04/23 08:19:05;;;;;;;;;;;27.40;52.70;;;;;;5133575;28;20229;-17
2023/04/23 08:21:31;;;;;;;;;;;27.50;52.60;;;;;;5132027;28;20006;-15
2023/04/23 08:23:57;;;;;;;;;;;27.70;52.20;;;;;;5114764;28;19919;-17
2023/04/23 08:26:22;;;;;;;;;;;27.60;52.30;;;;;;5132558;27;19912;-16
2023/04/23 08:28:48;;;;;;;;;;;28.00;52.20;;;;;;5137126;27;20238;-17
2023/04/23 08:31:15;;;;;;;;;;;28.10;52.00;;;;;;5134235;27;19934;-17
2023/04/23 08:33:40;;;;;;;;;;;28.10;51.60;;;;;;5137366;27;19994;-18
2023/04/23 08:36:06;;;;;;;;;;;27.90;51.40;;;;;;5118417;27;20059;-16
2023/04/23 08:38:32;;;;;;;;;;;27.20;52.10;;;;;;5134238;27;20315;-17
2023/04/23 08:40:58;;;;;;;;;;;27.00;52.50;;;;;;5135090;27;20103;-17
2023/04/23 08:43:30;;;;;;;;;;;26.60;52.80;;;;;;5117852;27;20222;-18
2023/04/23 08:45:58;;;;;;;;;;;27.30;52.70;;;;;;5136997;27;19971;-17
2023/04/23 08:48:23;;;;;;;;;;;28.00;52.10;;;;;;5136788;27;20045;-17
2023/04/23 08:50:49;;;;;;;;;;;28.50;51.60;;;;;;5137039;27;19919;-18
2023/04/23 08:53:17;;;;;;;;;;;28.80;51.00;;;;;;5137159;27;19907;-19
2023/04/23 08:55:44;;;;;;;;;;;28.00;50.60;;;;;;5134310;27;20403;-17
2023/04/23 08:58:09;;;;;;;;;;;28.30;51.30;;;;;;5134590;27;20193;-18
2023/04/23 09:00:35;;;;;;;;;;;27.30;51.20;;;;;;5134193;27;20118;-16
2023/04/23 09:03:01;;;;;;;;;;;27.30;51.80;;;;;;5134435;27;19907;-19
2023/04/23 09:05:27;;;;;;;;;;;28.00;51.50;;;;;;5132930;27;20100;-18
2023/04/23 09:07:53;;;;;;;;;;;28.60;50.90;;;;;;5133204;27;19908;-19
2023/04/23 09:10:19;;;;;;;;;;;27.80;50.60;;;;;;5132771;27;20026;-18
2023/04/23 09:12:45;;;;;;;;;;;27.70;50.90;;;;;;5131052;27;19999;-19
2023/04/23 09:15:12;;;;;;;;;;;27.10;51.20;;;;;;5115207;27;19926;-18
2023/04/23 09:17:39;;;;;;;;;;;26.90;51.80;;;;;;5132754;27;20031;-17
2023/04/23 09:20:07;;;;;;;;;;;26.00;52.20;;;;;;5114174;27;19911;-16
2023/04/23 09:22:46;;;;;;;;;;;25.20;53.20;;;;;;5132627;27;20007;-19
2023/04/23 09:25:13;;;;;;;;;;;25.90;54.40;;;;;;5133173;27;20212;-20
2023/04/23 09:27:38;;;;;;;;;;;25.60;54.30;;;;;;5116256;27;19918;-19
2023/04/23 09:30:06;;;;;;;;;;;26.60;54.50;;;;;;5137349;27;19907;-17
2023/04/23 09:32:32;;;;;;;;;;;27.30;53.60;;;;;;5113362;27;19937;-18
2023/04/23 09:34:57;;;;;;;;;;;26.90;53.10;;;;;;5112673;27;19915;-17
2023/04/23 09:37:26;;;;;;;;;;;26.30;53.70;;;;;;5113637;27;19972;-18
2023/04/23 09:39:55;;;;;;;;;;;26.80;54.10;;;;;;5111945;27;19911;-17
2023/04/23 09:42:26;;;;;;;;;;;25.80;54.20;;;;;;5130700;27;19934;-16
2023/04/23 09:45:07;;;;;;;;;;;25.20;55.20;;;;;;5132199;27;19950;-18
2023/04/23 09:47:34;;;;;;;;;;;24.60;56.30;;;;;;5108124;27;19919;-18
2023/04/23 09:50:00;;;;;;;;;;;24.10;57.30;;;;;;5130980;27;20160;-19
2023/04/23 09:52:27;;;;;;;;;;;23.70;58.00;;;;;;5131873;27;19907;-17
2023/04/23 09:54:55;;;;;;;;;;;23.50;58.70;;;;;;5132592;27;20273;-16
2023/04/23 09:57:23;;;;;;;;;;;24.20;58.50;;;;;;5114765;27;19908;-18
2023/04/23 09:59:48;;;;;;;;;;;24.20;57.70;;;;;;5130810;27;20074;-16
2023/04/23 10:02:14;;;;;;;;;;;24.90;57.30;;;;;;5133775;27;20074;-16
2023/04/23 10:04:40;;;;;;;;;;;25.80;56.20;;;;;;5117295;27;20010;-17
2023/04/23 10:07:07;;;;;;;;;;;25.30;55.70;;;;;;5115459;27;19998;-16
2023/04/23 10:09:33;;;;;;;;;;;26.10;55.60;;;;;;5116602;27;20192;-17
2023/04/23 10:12:01;;;;;;;;;;;25.60;55.50;;;;;;5115851;27;19977;-18
2023/04/23 10:14:27;;;;;;;;;;;25.20;55.60;;;;;;5115121;27;19914;-16
2023/04/23 10:16:59;;;;;;;;;;;24.80;56.10;;;;;;5132532;27;19934;-17
2023/04/23 10:19:26;;;;;;;;;;;24.20;57.20;;;;;;5132713;27;19947;-17
2023/04/23 10:21:56;;;;;;;;;;;23.60;58.40;;;;;;5112966;27;19938;-16
2023/04/23 10:24:23;;;;;;;;;;;23.30;59.40;;;;;;5131606;27;20040;-19
2023/04/23 10:26:51;;;;;;;;;;;23.10;60.30;;;;;;5113519;27;19911;-18
2023/04/23 10:29:17;;;;;;;;;;;22.80;61.50;;;;;;5113220;27;19957;-18
2023/04/23 10:31:44;;;;;;;;;;;22.80;62.60;;;;;;5113525;27;19915;-17
2023/04/23 10:34:10;;;;;;;;;;;22.80;63.20;;;;;;5132654;27;20013;-19
2023/04/23 10:36:37;;;;;;;;;;;22.80;63.30;;;;;;5133353;27;19975;-17
2023/04/23 10:39:06;;;;;;;;;;;22.80;63.70;;;;;;5133453;27;20257;-16
2023/04/23 10:41:36;;;;;;;;;;;22.80;64.10;;;;;;5132548;27;19923;-17
2023/04/23 10:44:06;;;;;;;;;;;22.70;64.40;;;;;;5129532;27;20146;-15
2023/04/23 10:46:32;;;;;;;;;;;22.70;64.70;;;;;;5129212;27;19916;-18
2023/04/23 10:49:09;;;;;;;;;;;22.70;65.10;;;;;;5130014;27;19907;-17
2023/04/23 10:51:35;;;;;;;;;;;22.70;65.30;;;;;;5130441;27;19908;-17
2023/04/23 10:54:04;;;;;;;;;;;22.60;65.60;;;;;;5112386;27;20170;-17
2023/04/23 10:56:30;;;;;;;;;;;22.60;65.90;;;;;;5131157;27;19915;-15
2023/04/23 10:58:56;;;;;;;;;;;22.60;66.20;;;;;;5113093;28;20277;-17
2023/04/23 11:01:27;;;;;;;;;;;22.60;66.40;;;;;;5131733;27;19911;-16
2023/04/23 11:03:53;;;;;;;;;;;22.50;66.70;;;;;;5114044;27;20185;-18
2023/04/23 11:06:40;;;;;;;;;;;22.50;67.10;;;;;;5130706;27;20284;-18
2023/04/23 11:09:25;;;;;;;;;;;22.40;67.90;;;;;;5131846;27;19916;-18
2023/04/23 11:11:50;;;;;;;;;;;22.40;67.60;;;;;;5130748;27;19907;-19
2023/04/23 11:14:16;;;;;;;;;;;22.30;68.20;;;;;;5112203;27;19994;-19
2023/04/23 11:16:42;;;;;;;;;;;22.20;68.60;;;;;;5130578;27;19915;-17
2023/04/23 11:19:11;;;;;;;;;;;22.20;69.30;;;;;;5111824;27;19977;-18
2023/04/23 11:21:56;;;;;;;;;;;22.10;69.80;;;;;;5129491;27;19911;-17
2023/04/23 11:24:22;;;;;;;;;;;22.00;70.40;;;;;;5111397;27;19908;-18
2023/04/23 11:26:50;;;;;;;;;;;21.90;71.00;;;;;;5129783;27;20001;-19
2023/04/23 11:29:16;;;;;;;;;;;21.90;71.60;;;;;;5129981;27;19908;-19
2023/04/23 11:31:43;;;;;;;;;;;21.80;72.00;;;;;;5128350;27;20242;-18
2023/04/23 11:34:10;;;;;;;;;;;21.80;72.30;;;;;;5125939;27;19914;-16
2023/04/23 11:36:37;;;;;;;;;;;21.80;72.50;;;;;;5108546;28;19908;-18
2023/04/23 11:39:03;;;;;;;;;;;21.80;72.60;;;;;;5111748;28;19927;-15
2023/04/23 11:41:29;;;;;;;;;;;21.80;72.80;;;;;;5111730;28;19911;-16
2023/04/23 11:43:57;;;;;;;;;;;21.80;72.80;;;;;;5128720;28;19914;-16
2023/04/23 11:46:23;;;;;;;;;;;21.90;73.10;;;;;;5130073;28;19918;-16
2023/04/23 11:48:48;;;;;;;;;;;21.90;73.10;;;;;;5132006;28;19912;-17
2023/04/23 11:51:15;;;;;;;;;;;21.90;72.90;;;;;;5131462;28;19970;-17
2023/04/23 11:53:47;;;;;;;;;;;22.00;72.90;;;;;;5128906;28;19916;-18
2023/04/23 11:56:15;;;;;;;;;;;22.00;72.80;;;;;;5132028;28;19915;-17
2023/04/23 11:58:40;;;;;;;;;;;22.10;72.80;;;;;;5129798;28;20027;-17
2023/04/23 12:01:06;;;;;;;;;;;22.00;72.80;;;;;;5129245;27;20106;-18
2023/04/23 12:03:33;;;;;;;;;;;22.00;73.10;;;;;;5133295;27;19907;-16
2023/04/23 12:05:58;;;;;;;;;;;22.00;73.30;;;;;;5113701;27;19907;-17
2023/04/23 12:08:24;;;;;;;;;;;21.90;73.50;;;;;;5113380;27;19923;-19
2023/04/23 12:10:53;;;;;;;;;;;21.90;74.40;;;;;;5133568;27;19908;-16
2023/04/23 12:13:27;;;;;;;;;;;21.90;73.90;;;;;;5133346;27;20010;-19
2023/04/23 12:15:55;;;;;;;;;;;21.90;74.00;;;;;;5111281;27;20177;-18
2023/04/23 12:18:26;;;;;;;;;;;21.90;73.90;;;;;;5114713;27;20323;-17
2023/04/23 12:20:51;;;;;;;;;;;22.00;73.90;;;;;;5120333;28;19916;-17
2023/04/23 12:23:25;;;;;;;;;;;22.00;73.90;;;;;;5120809;28;19920;-16
2023/04/23 12:25:52;;;;;;;;;;;22.00;73.80;;;;;;5120112;28;20434;-18
2023/04/23 12:28:21;;;;;;;;;;;22.00;73.60;;;;;;5119576;28;19940;-19
2023/04/23 12:30:47;;;;;;;;;;;22.00;73.40;;;;;;5126921;27;20377;-16
2023/04/23 12:33:29;;;;;;;;;;;22.00;73.30;;;;;;5141351;27;19971;-16
2023/04/23 12:35:56;;;;;;;;;;;22.00;73.20;;;;;;5140512;27;19916;-17
2023/04/23 12:38:22;;;;;;;;;;;22.00;73.60;;;;;;5131738;27;19912;-17
2023/04/23 12:40:48;;;;;;;;;;;21.90;73.60;;;;;;5138007;27;20335;-17
2023/04/23 12:43:14;;;;;;;;;;;22.00;73.10;;;;;;5128623;27;20457;-18
2023/04/23 12:45:40;;;;;;;;;;;21.90;72.50;;;;;;5119273;28;19908;-18
2023/04/23 12:48:05;;;;;;;;;;;21.90;72.40;;;;;;5119935;28;19908;-16
2023/04/23 12:50:34;;;;;;;;;;;21.90;71.50;;;;;;5119953;28;19908;-18
2023/04/23 12:52:59;;;;;;;;;;;21.90;67.70;;;;;;5120475;28;19907;-16
2023/04/23 12:55:25;;;;;;;;;;;21.90;67.30;;;;;;5120271;28;19919;-17
2023/04/23 12:57:50;;;;;;;;;;;21.90;66.80;;;;;;5120314;28;19943;-18
2023/04/23 13:00:25;;;;;;;;;;;21.90;67.20;;;;;;5120288;28;19916;-18
2023/04/23 13:02:51;;;;;;;;;;;21.90;68.40;;;;;;5120409;28;19908;-17
2023/04/23 13:05:17;;;;;;;;;;;21.90;67.20;;;;;;5120606;28;19957;-17
2023/04/23 13:07:42;;;;;;;;;;;21.80;67.70;;;;;;5122475;27;20298;-18
2023/04/23 13:10:08;;;;;;;;;;;21.80;68.40;;;;;;5103063;28;19908;-19
2023/04/23 13:12:34;;;;;;;;;;;21.80;69.50;;;;;;5119660;28;19965;-18
2023/04/23 13:14:59;;;;;;;;;;;21.80;68.30;;;;;;5120190;28;19920;-19
2023/04/23 13:17:25;;;;;;;;;;;21.70;67.10;;;;;;5120084;27;19926;-18
2023/04/23 13:19:51;;;;;;;;;;;21.80;66.70;;;;;;5140457;27;19911;-20
2023/04/23 13:22:16;;;;;;;;;;;21.70;65.70;;;;;;5137732;27;19911;-18
2023/04/23 13:24:42;;;;;;;;;;;21.70;65.00;;;;;;5124455;27;19918;-18
2023/04/23 13:27:08;;;;;;;;;;;21.70;65.10;;;;;;5120023;28;19918;-19
2023/04/23 13:29:33;;;;;;;;;;;21.70;64.00;;;;;;5119631;27;19915;-17
2023/04/23 13:31:59;;;;;;;;;;;21.70;64.10;;;;;;5101516;28;19908;-16
2023/04/23 13:34:25;;;;;;;;;;;21.70;64.70;;;;;;5119776;27;19908;-14
2023/04/23 13:36:51;;;;;;;;;;;21.70;65.00;;;;;;5101298;28;19940;-19
2023/04/23 13:39:17;;;;;;;;;;;21.80;64.80;;;;;;5118101;28;20220;-19
2023/04/23 13:41:42;;;;;;;;;;;21.70;63.60;;;;;;5100721;28;19976;-18
2023/04/23 13:44:14;;;;;;;;;;;21.70;63.10;;;;;;5118465;28;20297;-19
2023/04/23 13:46:40;;;;;;;;;;;21.60;63.20;;;;;;5100576;28;19993;-17
2023/04/23 13:49:06;;;;;;;;;;;21.60;63.60;;;;;;5101263;28;19960;-15
2023/04/23 13:51:31;;;;;;;;;;;21.60;63.20;;;;;;5121112;27;19991;-18
2023/04/23 13:53:59;;;;;;;;;;;21.60;62.30;;;;;;5102405;27;20006;-18
2023/04/23 13:56:25;;;;;;;;;;;21.60;62.00;;;;;;5131225;27;19911;-18
2023/04/23 13:58:51;;;;;;;;;;;21.60;62.00;;;;;;5115065;28;19915;-16
2023/04/23 14:01:17;;;;;;;;;;;21.60;61.40;;;;;;5117931;28;19911;-17
2023/04/23 14:03:48;;;;;;;;;;;21.60;61.40;;;;;;5117828;28;19918;-17
2023/04/23 14:06:14;;;;;;;;;;;21.60;61.50;;;;;;5119722;27;20282;-18
2023/04/23 14:08:39;;;;;;;;;;;21.60;60.80;;;;;;5108047;27;20274;-18
2023/04/23 14:11:05;;;;;;;;;;;21.60;60.20;;;;;;5139099;27;19908;-17
2023/04/23 14:13:31;;;;;;;;;;;21.50;60.20;;;;;;5119378;27;19908;-16
2023/04/23 14:15:57;;;;;;;;;;;21.50;59.70;;;;;;5118285;28;19916;-16